sensor_id;sensor_type;location;lat;lon;timestamp;temperature;humidity
11772;DHT22;12556;55.748;13.194;2023-02-28T00:00:33;1.30;99.90
11772;DHT22;12556;55.748;13.194;2023-02-28T00:03:00;1.30;99.90
11772;DHT22;12556;55.748;13.194;2023-02-28T00:05:27;1.30;99.90
11772;DHT22;12556;55.748;13.194;2023-02-28T00:07:55;1.30;99.90
11772;DHT22;12556;55.748;13.194;2023-02-28T00:10:24;1.30;99.90
11772;DHT22;12556;55.748;13.194;2023-02-28T00:12:55;1.30;99.90
11772;DHT22;12556;55.748;13.194;2023-02-28T00:15:23;1.20;99.90
11772;DHT22;12556;55.748;13.194;2023-02-28T00:17:50;1.20;99.90
11772;DHT22;12556;55.748;13.194;2023-02-28T00:20:18;1.20;99.90
11772;DHT22;12556;55.748;13.194;2023-02-28T00:22:46;1.20;99.90
11772;DHT22;12556;55.748;13.194;2023-02-28T00:25:16;1.10;99.90
11772;DHT22;12556;55.748;13.194;2023-02-28T00:27:43;1.10;99.90
11772;DHT22;12556;55.748;13.194;2023-02-28T00:30:14;1.10;99.90
11772;DHT22;12556;55.748;13.194;2023-02-28T00:32:41;1.10;99.90
11772;DHT22;12556;55.748;13.194;2023-02-28T00:35:09;1.00;99.90
11772;DHT22;12556;55.748;13.194;2023-02-28T00:37:36;0.70;99.90
11772;DHT22;12556;55.748;13.194;2023-02-28T00:40:04;0.90;99.90
11772;DHT22;12556;55.748;13.194;2023-02-28T00:42:32;0.80;99.90
11772;DHT22;12556;55.748;13.194;2023-02-28T00:44:59;0.80;99.90
11772;DHT22;12556;55.748;13.194;2023-02-28T00:47:28;0.70;99.90
11772;DHT22;12556;55.748;13.194;2023-02-28T00:49:55;0.70;99.90
11772;DHT22;12556;55.748;13.194;2023-02-28T00:52:22;0.70;99.90
11772;DHT22;12556;55.748;13.194;2023-02-28T00:54:48;0.60;99.90
11772;DHT22;12556;55.748;13.194;2023-02-28T00:57:15;0.60;99.90
11772;DHT22;12556;55.748;13.194;2023-02-28T00:59:42;0.60;99.90
11772;DHT22;12556;55.748;13.194;2023-02-28T01:02:09;0.50;99.90
11772;DHT22;12556;55.748;13.194;2023-02-28T01:04:37;0.50;99.90
11772;DHT22;12556;55.748;13.194;2023-02-28T01:07:04;0.50;99.90
11772;DHT22;12556;55.748;13.194;2023-02-28T01:09:31;0.40;99.90
11772;DHT22;12556;55.748;13.194;2023-02-28T01:11:58;0.40;99.90
11772;DHT22;12556;55.748;13.194;2023-02-28T01:14:25;0.30;99.90
11772;DHT22;12556;55.748;13.194;2023-02-28T01:16:52;0.30;99.90
11772;DHT22;12556;55.748;13.194;2023-02-28T01:19:19;0.30;99.90
11772;DHT22;12556;55.748;13.194;2023-02-28T01:21:47;0.30;99.90
11772;DHT22;12556;55.748;13.194;2023-02-28T01:24:14;0.30;99.90
11772;DHT22;12556;55.748;13.194;2023-02-28T01:26:41;0.30;99.90
11772;DHT22;12556;55.748;13.194;2023-02-28T01:29:08;0.30;99.90
11772;DHT22;12556;55.748;13.194;2023-02-28T01:31:35;0.30;99.90
11772;DHT22;12556;55.748;13.194;2023-02-28T01:34:02;0.30;99.90
11772;DHT22;12556;55.748;13.194;2023-02-28T01:36:29;0.30;99.90
11772;DHT22;12556;55.748;13.194;2023-02-28T01:38:57;0.30;99.90
11772;DHT22;12556;55.748;13.194;2023-02-28T01:41:26;0.30;99.90
11772;DHT22;12556;55.748;13.194;2023-02-28T01:43:59;0.30;99.90
11772;DHT22;12556;55.748;13.194;2023-02-28T01:46:28;0.30;99.90
11772;DHT22;12556;55.748;13.194;2023-02-28T01:49:00;0.30;99.90
11772;DHT22;12556;55.748;13.194;2023-02-28T01:51:30;0.30;99.90
11772;DHT22;12556;55.748;13.194;2023-02-28T01:54:03;0.40;99.90
11772;DHT22;12556;55.748;13.194;2023-02-28T01:56:34;0.40;99.90
11772;DHT22;12556;55.748;13.194;2023-02-28T01:59:02;0.40;99.90
11772;DHT22;12556;55.748;13.194;2023-02-28T02:01:30;0.40;99.90
11772;DHT22;12556;55.748;13.194;2023-02-28T02:03:59;0.40;99.90
11772;DHT22;12556;55.748;13.194;2023-02-28T02:06:31;0.50;99.90
11772;DHT22;12556;55.748;13.194;2023-02-28T02:09:02;0.40;99.90
11772;DHT22;12556;55.748;13.194;2023-02-28T02:11:29;0.40;99.90
11772;DHT22;12556;55.748;13.194;2023-02-28T02:17:12;0.50;99.90
11772;DHT22;12556;55.748;13.194;2023-02-28T02:20:25;0.50;99.90
11772;DHT22;12556;55.748;13.194;2023-02-28T02:23:13;0.40;99.90
11772;DHT22;12556;55.748;13.194;2023-02-28T02:25:52;0.40;99.90
11772;DHT22;12556;55.748;13.194;2023-02-28T02:31:51;0.40;99.90
11772;DHT22;12556;55.748;13.194;2023-02-28T02:34:42;0.40;99.90
11772;DHT22;12556;55.748;13.194;2023-02-28T02:37:24;0.30;99.90
11772;DHT22;12556;55.748;13.194;2023-02-28T02:39:59;0.30;99.90
11772;DHT22;12556;55.748;13.194;2023-02-28T02:42:29;0.20;99.90
11772;DHT22;12556;55.748;13.194;2023-02-28T02:45:01;0.20;99.90
11772;DHT22;12556;55.748;13.194;2023-02-28T02:47:30;0.20;99.90
11772;DHT22;12556;55.748;13.194;2023-02-28T02:50:02;0.30;99.90
11772;DHT22;12556;55.748;13.194;2023-02-28T02:52:34;0.40;99.90
11772;DHT22;12556;55.748;13.194;2023-02-28T02:55:04;0.40;99.90
11772;DHT22;12556;55.748;13.194;2023-02-28T02:57:35;0.40;99.90
11772;DHT22;12556;55.748;13.194;2023-02-28T03:00:05;0.30;99.90
11772;DHT22;12556;55.748;13.194;2023-02-28T03:02:34;0.20;99.90
11772;DHT22;12556;55.748;13.194;2023-02-28T03:05:08;0.20;99.90
11772;DHT22;12556;55.748;13.194;2023-02-28T03:07:38;0.10;99.90
11772;DHT22;12556;55.748;13.194;2023-02-28T03:10:27;0.10;99.90
11772;DHT22;12556;55.748;13.194;2023-02-28T03:13:04;0.10;99.90
11772;DHT22;12556;55.748;13.194;2023-02-28T03:15:38;0.00;99.90
11772;DHT22;12556;55.748;13.194;2023-02-28T03:18:14;0.00;99.90
11772;DHT22;12556;55.748;13.194;2023-02-28T03:20:54;-0.10;99.90
11772;DHT22;12556;55.748;13.194;2023-02-28T03:23:29;-0.10;99.90
11772;DHT22;12556;55.748;13.194;2023-02-28T03:26:03;-0.10;99.90
11772;DHT22;12556;55.748;13.194;2023-02-28T03:28:36;-0.10;99.90
11772;DHT22;12556;55.748;13.194;2023-02-28T03:31:12;0.00;99.90
11772;DHT22;12556;55.748;13.194;2023-02-28T03:33:43;0.10;99.90
11772;DHT22;12556;55.748;13.194;2023-02-28T03:36:15;0.10;99.90
11772;DHT22;12556;55.748;13.194;2023-02-28T03:38:47;0.20;99.90
11772;DHT22;12556;55.748;13.194;2023-02-28T03:41:19;0.30;99.90
11772;DHT22;12556;55.748;13.194;2023-02-28T03:43:50;0.40;99.90
11772;DHT22;12556;55.748;13.194;2023-02-28T03:46:24;0.50;99.90
11772;DHT22;12556;55.748;13.194;2023-02-28T03:48:56;0.40;99.90
11772;DHT22;12556;55.748;13.194;2023-02-28T03:51:27;0.40;99.90
11772;DHT22;12556;55.748;13.194;2023-02-28T03:53:59;0.40;99.90
11772;DHT22;12556;55.748;13.194;2023-02-28T03:56:33;0.40;99.90
11772;DHT22;12556;55.748;13.194;2023-02-28T03:59:05;0.40;99.90
11772;DHT22;12556;55.748;13.194;2023-02-28T04:01:36;0.40;99.90
11772;DHT22;12556;55.748;13.194;2023-02-28T04:04:04;0.40;99.90
11772;DHT22;12556;55.748;13.194;2023-02-28T04:06:33;0.50;99.90
11772;DHT22;12556;55.748;13.194;2023-02-28T04:09:01;0.40;99.90
11772;DHT22;12556;55.748;13.194;2023-02-28T04:11:33;0.40;99.90
11772;DHT22;12556;55.748;13.194;2023-02-28T04:14:00;0.40;99.90
11772;DHT22;12556;55.748;13.194;2023-02-28T04:16:28;0.30;99.90
11772;DHT22;12556;55.748;13.194;2023-02-28T04:18:55;0.30;99.90
11772;DHT22;12556;55.748;13.194;2023-02-28T04:21:27;0.30;99.90
11772;DHT22;12556;55.748;13.194;2023-02-28T04:23:56;0.40;99.90
11772;DHT22;12556;55.748;13.194;2023-02-28T04:26:27;0.40;99.90
11772;DHT22;12556;55.748;13.194;2023-02-28T04:28:55;0.30;99.90
11772;DHT22;12556;55.748;13.194;2023-02-28T04:31:22;0.40;99.90
11772;DHT22;12556;55.748;13.194;2023-02-28T04:33:49;0.40;99.90
11772;DHT22;12556;55.748;13.194;2023-02-28T04:36:16;0.40;99.90
11772;DHT22;12556;55.748;13.194;2023-02-28T04:38:44;0.40;99.90
11772;DHT22;12556;55.748;13.194;2023-02-28T04:41:12;0.40;99.90
11772;DHT22;12556;55.748;13.194;2023-02-28T04:43:40;0.40;99.90
11772;DHT22;12556;55.748;13.194;2023-02-28T04:46:07;0.50;99.90
11772;DHT22;12556;55.748;13.194;2023-02-28T04:48:35;0.50;99.90
11772;DHT22;12556;55.748;13.194;2023-02-28T04:51:04;0.50;99.90
11772;DHT22;12556;55.748;13.194;2023-02-28T04:53:32;0.50;99.90
11772;DHT22;12556;55.748;13.194;2023-02-28T04:55:59;0.50;99.90
11772;DHT22;12556;55.748;13.194;2023-02-28T04:58:27;0.40;99.90
11772;DHT22;12556;55.748;13.194;2023-02-28T05:01:01;0.40;99.90
11772;DHT22;12556;55.748;13.194;2023-02-28T05:03:28;0.40;99.90
11772;DHT22;12556;55.748;13.194;2023-02-28T05:05:55;0.40;99.90
11772;DHT22;12556;55.748;13.194;2023-02-28T05:08:22;0.40;99.90
11772;DHT22;12556;55.748;13.194;2023-02-28T05:10:49;0.40;99.90
11772;DHT22;12556;55.748;13.194;2023-02-28T05:13:16;0.30;99.90
11772;DHT22;12556;55.748;13.194;2023-02-28T05:15:44;0.30;99.90
11772;DHT22;12556;55.748;13.194;2023-02-28T05:18:11;0.20;99.90
11772;DHT22;12556;55.748;13.194;2023-02-28T05:20:38;0.20;99.90
11772;DHT22;12556;55.748;13.194;2023-02-28T05:23:05;0.20;99.90
11772;DHT22;12556;55.748;13.194;2023-02-28T05:25:32;0.20;99.90
11772;DHT22;12556;55.748;13.194;2023-02-28T05:27:59;0.20;99.90
11772;DHT22;12556;55.748;13.194;2023-02-28T05:30:26;0.40;99.90
11772;DHT22;12556;55.748;13.194;2023-02-28T05:32:54;0.30;99.90
11772;DHT22;12556;55.748;13.194;2023-02-28T05:35:21;0.40;99.90
11772;DHT22;12556;55.748;13.194;2023-02-28T05:37:48;0.40;99.90
11772;DHT22;12556;55.748;13.194;2023-02-28T05:40:15;0.40;99.90
11772;DHT22;12556;55.748;13.194;2023-02-28T05:42:41;0.50;99.90
11772;DHT22;12556;55.748;13.194;2023-02-28T05:45:09;0.60;99.90
11772;DHT22;12556;55.748;13.194;2023-02-28T05:47:36;0.60;99.90
11772;DHT22;12556;55.748;13.194;2023-02-28T05:50:06;0.70;99.90
11772;DHT22;12556;55.748;13.194;2023-02-28T05:52:35;0.70;99.90
11772;DHT22;12556;55.748;13.194;2023-02-28T05:55:01;0.70;99.90
11772;DHT22;12556;55.748;13.194;2023-02-28T05:57:28;0.60;99.90
11772;DHT22;12556;55.748;13.194;2023-02-28T05:59:55;0.60;99.90
11772;DHT22;12556;55.748;13.194;2023-02-28T06:02:22;0.60;99.90
11772;DHT22;12556;55.748;13.194;2023-02-28T06:04:49;0.60;99.90
11772;DHT22;12556;55.748;13.194;2023-02-28T06:07:17;0.60;99.90
11772;DHT22;12556;55.748;13.194;2023-02-28T06:09:44;0.60;99.90
11772;DHT22;12556;55.748;13.194;2023-02-28T06:12:11;0.60;99.90
11772;DHT22;12556;55.748;13.194;2023-02-28T06:14:38;0.60;99.90
11772;DHT22;12556;55.748;13.194;2023-02-28T06:17:05;0.70;99.90
11772;DHT22;12556;55.748;13.194;2023-02-28T06:19:32;0.50;99.90
11772;DHT22;12556;55.748;13.194;2023-02-28T06:21:59;0.60;99.90
11772;DHT22;12556;55.748;13.194;2023-02-28T06:24:27;0.60;99.90
11772;DHT22;12556;55.748;13.194;2023-02-28T06:26:55;0.60;99.90
11772;DHT22;12556;55.748;13.194;2023-02-28T06:29:24;0.70;99.90
11772;DHT22;12556;55.748;13.194;2023-02-28T06:31:51;0.70;99.90
11772;DHT22;12556;55.748;13.194;2023-02-28T06:34:18;0.80;99.90
11772;DHT22;12556;55.748;13.194;2023-02-28T06:36:45;0.80;99.90
11772;DHT22;12556;55.748;13.194;2023-02-28T06:39:11;0.80;99.90
11772;DHT22;12556;55.748;13.194;2023-02-28T06:41:40;0.80;99.90
11772;DHT22;12556;55.748;13.194;2023-02-28T06:44:11;0.80;99.90
11772;DHT22;12556;55.748;13.194;2023-02-28T06:46:39;0.80;99.90
11772;DHT22;12556;55.748;13.194;2023-02-28T06:49:06;0.80;99.90
11772;DHT22;12556;55.748;13.194;2023-02-28T06:51:36;0.80;99.90
11772;DHT22;12556;55.748;13.194;2023-02-28T06:54:03;0.80;99.90
11772;DHT22;12556;55.748;13.194;2023-02-28T06:56:30;0.80;99.90
11772;DHT22;12556;55.748;13.194;2023-02-28T06:58:59;0.80;99.90
11772;DHT22;12556;55.748;13.194;2023-02-28T07:01:26;0.80;99.90
11772;DHT22;12556;55.748;13.194;2023-02-28T07:03:54;0.90;99.90
11772;DHT22;12556;55.748;13.194;2023-02-28T07:06:22;0.90;99.90
11772;DHT22;12556;55.748;13.194;2023-02-28T07:08:49;1.00;99.90
11772;DHT22;12556;55.748;13.194;2023-02-28T07:11:16;1.10;99.90
11772;DHT22;12556;55.748;13.194;2023-02-28T07:13:43;1.10;99.90
11772;DHT22;12556;55.748;13.194;2023-02-28T07:16:11;1.20;99.90
11772;DHT22;12556;55.748;13.194;2023-02-28T07:18:39;1.20;99.90
11772;DHT22;12556;55.748;13.194;2023-02-28T07:21:09;1.30;99.90
11772;DHT22;12556;55.748;13.194;2023-02-28T07:23:37;1.40;99.90
11772;DHT22;12556;55.748;13.194;2023-02-28T07:26:04;1.50;99.90
11772;DHT22;12556;55.748;13.194;2023-02-28T07:28:32;1.60;99.90
11772;DHT22;12556;55.748;13.194;2023-02-28T07:31:03;1.60;99.90
11772;DHT22;12556;55.748;13.194;2023-02-28T07:33:32;1.70;99.90
11772;DHT22;12556;55.748;13.194;2023-02-28T07:36:04;1.70;99.90
11772;DHT22;12556;55.748;13.194;2023-02-28T07:38:33;1.70;99.90
11772;DHT22;12556;55.748;13.194;2023-02-28T07:41:01;1.70;99.90
11772;DHT22;12556;55.748;13.194;2023-02-28T07:43:29;1.80;99.90
11772;DHT22;12556;55.748;13.194;2023-02-28T07:46:01;1.80;99.90
11772;DHT22;12556;55.748;13.194;2023-02-28T07:48:28;1.90;99.90
11772;DHT22;12556;55.748;13.194;2023-02-28T07:50:57;1.90;99.90
11772;DHT22;12556;55.748;13.194;2023-02-28T07:53:25;2.00;99.90
11772;DHT22;12556;55.748;13.194;2023-02-28T07:55:55;2.00;99.90
11772;DHT22;12556;55.748;13.194;2023-02-28T07:58:22;2.10;99.90
11772;DHT22;12556;55.748;13.194;2023-02-28T08:00:49;2.10;99.90
11772;DHT22;12556;55.748;13.194;2023-02-28T08:03:17;2.20;99.90
11772;DHT22;12556;55.748;13.194;2023-02-28T08:05:45;2.40;99.90
11772;DHT22;12556;55.748;13.194;2023-02-28T08:08:14;2.30;99.90
11772;DHT22;12556;55.748;13.194;2023-02-28T08:10:41;2.40;99.90
11772;DHT22;12556;55.748;13.194;2023-02-28T08:13:08;2.40;99.90
11772;DHT22;12556;55.748;13.194;2023-02-28T08:15:35;2.20;99.90
11772;DHT22;12556;55.748;13.194;2023-02-28T08:18:02;2.60;99.90
11772;DHT22;12556;55.748;13.194;2023-02-28T08:20:29;2.60;99.90
11772;DHT22;12556;55.748;13.194;2023-02-28T08:22:56;2.70;99.90
11772;DHT22;12556;55.748;13.194;2023-02-28T08:25:24;2.70;99.90
11772;DHT22;12556;55.748;13.194;2023-02-28T08:27:51;2.80;99.90
11772;DHT22;12556;55.748;13.194;2023-02-28T08:30:18;2.80;99.90
11772;DHT22;12556;55.748;13.194;2023-02-28T08:32:45;2.90;99.90
11772;DHT22;12556;55.748;13.194;2023-02-28T08:35:12;2.90;99.90
11772;DHT22;12556;55.748;13.194;2023-02-28T08:37:39;2.90;99.90
11772;DHT22;12556;55.748;13.194;2023-02-28T08:40:07;3.00;99.90
11772;DHT22;12556;55.748;13.194;2023-02-28T08:42:36;3.00;99.90
11772;DHT22;12556;55.748;13.194;2023-02-28T08:45:04;3.10;99.90
11772;DHT22;12556;55.748;13.194;2023-02-28T08:47:31;3.10;99.90
11772;DHT22;12556;55.748;13.194;2023-02-28T08:49:58;3.10;99.90
11772;DHT22;12556;55.748;13.194;2023-02-28T08:52:25;3.20;99.90
11772;DHT22;12556;55.748;13.194;2023-02-28T08:54:52;3.20;99.90
11772;DHT22;12556;55.748;13.194;2023-02-28T08:57:18;3.30;99.90
11772;DHT22;12556;55.748;13.194;2023-02-28T08:59:47;3.30;99.90
11772;DHT22;12556;55.748;13.194;2023-02-28T09:02:14;3.40;99.90
11772;DHT22;12556;55.748;13.194;2023-02-28T09:04:41;3.40;99.90
11772;DHT22;12556;55.748;13.194;2023-02-28T09:07:11;3.40;99.90
11772;DHT22;12556;55.748;13.194;2023-02-28T09:09:37;3.50;99.90
11772;DHT22;12556;55.748;13.194;2023-02-28T09:12:19;3.50;99.90
11772;DHT22;12556;55.748;13.194;2023-02-28T09:14:48;3.60;99.90
11772;DHT22;12556;55.748;13.194;2023-02-28T09:17:15;3.60;99.90
11772;DHT22;12556;55.748;13.194;2023-02-28T09:19:42;3.70;99.90
11772;DHT22;12556;55.748;13.194;2023-02-28T09:22:09;3.70;99.90
11772;DHT22;12556;55.748;13.194;2023-02-28T09:24:37;3.80;99.90
11772;DHT22;12556;55.748;13.194;2023-02-28T09:27:04;3.90;99.90
11772;DHT22;12556;55.748;13.194;2023-02-28T09:29:31;4.00;99.90
11772;DHT22;12556;55.748;13.194;2023-02-28T09:32:01;4.20;99.90
11772;DHT22;12556;55.748;13.194;2023-02-28T09:34:28;4.30;99.90
11772;DHT22;12556;55.748;13.194;2023-02-28T09:36:56;4.50;99.90
11772;DHT22;12556;55.748;13.194;2023-02-28T09:39:23;4.60;99.90
11772;DHT22;12556;55.748;13.194;2023-02-28T09:41:54;4.70;99.90
11772;DHT22;12556;55.748;13.194;2023-02-28T09:44:28;4.90;99.90
11772;DHT22;12556;55.748;13.194;2023-02-28T09:46:58;4.90;99.90
11772;DHT22;12556;55.748;13.194;2023-02-28T09:49:37;5.10;99.90
11772;DHT22;12556;55.748;13.194;2023-02-28T09:52:10;5.20;99.90
11772;DHT22;12556;55.748;13.194;2023-02-28T09:54:37;5.40;99.90
11772;DHT22;12556;55.748;13.194;2023-02-28T09:57:08;5.60;99.90
11772;DHT22;12556;55.748;13.194;2023-02-28T09:59:44;5.70;99.90
11772;DHT22;12556;55.748;13.194;2023-02-28T10:05:27;6.00;99.90
11772;DHT22;12556;55.748;13.194;2023-02-28T10:08:02;6.20;99.90
11772;DHT22;12556;55.748;13.194;2023-02-28T10:10:37;6.30;99.90
11772;DHT22;12556;55.748;13.194;2023-02-28T10:13:11;6.50;99.90
11772;DHT22;12556;55.748;13.194;2023-02-28T10:15:39;6.60;99.90
11772;DHT22;12556;55.748;13.194;2023-02-28T10:18:11;6.80;99.90
11772;DHT22;12556;55.748;13.194;2023-02-28T10:20:42;7.00;99.90
11772;DHT22;12556;55.748;13.194;2023-02-28T10:23:13;7.10;99.90
11772;DHT22;12556;55.748;13.194;2023-02-28T10:25:47;7.20;99.90
11772;DHT22;12556;55.748;13.194;2023-02-28T10:28:17;7.30;99.90
11772;DHT22;12556;55.748;13.194;2023-02-28T10:30:47;7.50;99.90
11772;DHT22;12556;55.748;13.194;2023-02-28T10:33:21;7.50;99.90
11772;DHT22;12556;55.748;13.194;2023-02-28T10:35:50;7.60;99.90
11772;DHT22;12556;55.748;13.194;2023-02-28T10:38:20;7.70;99.90
11772;DHT22;12556;55.748;13.194;2023-02-28T10:40:48;7.90;99.90
11772;DHT22;12556;55.748;13.194;2023-02-28T10:43:22;8.10;99.90
11772;DHT22;12556;55.748;13.194;2023-02-28T10:45:58;8.30;99.90
11772;DHT22;12556;55.748;13.194;2023-02-28T10:48:30;8.50;99.90
11772;DHT22;12556;55.748;13.194;2023-02-28T10:50:59;8.60;99.90
11772;DHT22;12556;55.748;13.194;2023-02-28T10:53:33;8.70;99.90
11772;DHT22;12556;55.748;13.194;2023-02-28T10:56:02;8.80;99.90
11772;DHT22;12556;55.748;13.194;2023-02-28T10:58:31;8.90;99.90
11772;DHT22;12556;55.748;13.194;2023-02-28T11:00:59;9.00;99.90
11772;DHT22;12556;55.748;13.194;2023-02-28T11:03:31;9.10;99.90
11772;DHT22;12556;55.748;13.194;2023-02-28T11:06:05;9.30;99.90
11772;DHT22;12556;55.748;13.194;2023-02-28T11:08:32;9.40;99.90
11772;DHT22;12556;55.748;13.194;2023-02-28T11:11:04;9.50;99.90
11772;DHT22;12556;55.748;13.194;2023-02-28T11:13:33;9.60;99.90
11772;DHT22;12556;55.748;13.194;2023-02-28T11:16:03;9.80;99.90
11772;DHT22;12556;55.748;13.194;2023-02-28T11:18:35;9.90;99.90
11772;DHT22;12556;55.748;13.194;2023-02-28T11:21:06;9.90;99.90
11772;DHT22;12556;55.748;13.194;2023-02-28T11:23:36;9.90;99.90
11772;DHT22;12556;55.748;13.194;2023-02-28T11:26:04;10.10;99.90
11772;DHT22;12556;55.748;13.194;2023-02-28T11:28:37;10.00;99.90
11772;DHT22;12556;55.748;13.194;2023-02-28T11:31:14;10.10;99.90
11772;DHT22;12556;55.748;13.194;2023-02-28T11:33:43;10.30;99.90
11772;DHT22;12556;55.748;13.194;2023-02-28T11:36:14;10.40;99.90
11772;DHT22;12556;55.748;13.194;2023-02-28T11:38:42;10.70;99.90
11772;DHT22;12556;55.748;13.194;2023-02-28T11:41:41;10.70;99.90
11772;DHT22;12556;55.748;13.194;2023-02-28T11:44:23;10.60;99.90
11772;DHT22;12556;55.748;13.194;2023-02-28T11:46:58;10.80;99.90
11772;DHT22;12556;55.748;13.194;2023-02-28T11:49:37;11.00;99.90
11772;DHT22;12556;55.748;13.194;2023-02-28T11:52:18;11.10;99.90
11772;DHT22;12556;55.748;13.194;2023-02-28T11:55:01;11.40;99.90
11772;DHT22;12556;55.748;13.194;2023-02-28T11:57:39;11.40;99.90
11772;DHT22;12556;55.748;13.194;2023-02-28T12:00:19;11.60;99.90
11772;DHT22;12556;55.748;13.194;2023-02-28T12:03:01;11.70;99.90
11772;DHT22;12556;55.748;13.194;2023-02-28T12:05:35;12.00;99.90
11772;DHT22;12556;55.748;13.194;2023-02-28T12:08:15;12.30;99.90
11772;DHT22;12556;55.748;13.194;2023-02-28T12:10:58;12.30;99.90
11772;DHT22;12556;55.748;13.194;2023-02-28T12:13:37;12.30;99.90
11772;DHT22;12556;55.748;13.194;2023-02-28T12:16:36;12.30;99.90
11772;DHT22;12556;55.748;13.194;2023-02-28T12:19:18;12.40;99.90
11772;DHT22;12556;55.748;13.194;2023-02-28T12:22:05;12.50;99.90
11772;DHT22;12556;55.748;13.194;2023-02-28T12:24:50;12.60;99.90
11772;DHT22;12556;55.748;13.194;2023-02-28T12:27:23;12.60;99.90
11772;DHT22;12556;55.748;13.194;2023-02-28T12:29:55;12.60;99.90
11772;DHT22;12556;55.748;13.194;2023-02-28T12:32:26;12.60;99.90
11772;DHT22;12556;55.748;13.194;2023-02-28T12:34:57;12.50;99.90
11772;DHT22;12556;55.748;13.194;2023-02-28T12:37:29;12.50;99.90
11772;DHT22;12556;55.748;13.194;2023-02-28T12:40:03;12.30;99.90
11772;DHT22;12556;55.748;13.194;2023-02-28T12:42:35;12.40;99.90
11772;DHT22;12556;55.748;13.194;2023-02-28T12:45:09;12.60;99.90
11772;DHT22;12556;55.748;13.194;2023-02-28T12:47:38;12.80;99.90
11772;DHT22;12556;55.748;13.194;2023-02-28T12:50:09;12.90;99.90
11772;DHT22;12556;55.748;13.194;2023-02-28T12:52:41;12.80;99.90
11772;DHT22;12556;55.748;13.194;2023-02-28T12:55:21;12.70;99.90
11772;DHT22;12556;55.748;13.194;2023-02-28T12:57:58;12.70;99.90
11772;DHT22;12556;55.748;13.194;2023-02-28T13:00:33;12.70;99.90
11772;DHT22;12556;55.748;13.194;2023-02-28T13:03:12;12.70;99.90
11772;DHT22;12556;55.748;13.194;2023-02-28T13:05:56;12.60;99.90
11772;DHT22;12556;55.748;13.194;2023-02-28T13:08:51;12.70;99.90
11772;DHT22;12556;55.748;13.194;2023-02-28T13:11:26;12.60;99.90
11772;DHT22;12556;55.748;13.194;2023-02-28T13:13:59;12.30;99.90
11772;DHT22;12556;55.748;13.194;2023-02-28T13:16:26;12.00;99.90
11772;DHT22;12556;55.748;13.194;2023-02-28T13:19:08;12.10;99.90
11772;DHT22;12556;55.748;13.194;2023-02-28T13:21:43;12.10;99.90
11772;DHT22;12556;55.748;13.194;2023-02-28T13:24:10;12.20;99.90
11772;DHT22;12556;55.748;13.194;2023-02-28T13:29:58;12.10;99.90
11772;DHT22;12556;55.748;13.194;2023-02-28T13:32:31;12.10;99.90
11772;DHT22;12556;55.748;13.194;2023-02-28T13:38:15;11.50;99.90
11772;DHT22;12556;55.748;13.194;2023-02-28T13:40:42;11.30;99.90
11772;DHT22;12556;55.748;13.194;2023-02-28T13:43:09;11.10;99.90
11772;DHT22;12556;55.748;13.194;2023-02-28T13:45:37;11.00;99.90
11772;DHT22;12556;55.748;13.194;2023-02-28T13:48:16;11.00;99.90
11772;DHT22;12556;55.748;13.194;2023-02-28T13:50:44;10.90;99.90
11772;DHT22;12556;55.748;13.194;2023-02-28T13:53:33;10.70;99.90
11772;DHT22;12556;55.748;13.194;2023-02-28T13:56:05;10.50;99.90
11772;DHT22;12556;55.748;13.194;2023-02-28T13:58:41;10.40;99.90
11772;DHT22;12556;55.748;13.194;2023-02-28T14:01:27;10.20;99.90
11772;DHT22;12556;55.748;13.194;2023-02-28T14:04:08;10.00;99.90
11772;DHT22;12556;55.748;13.194;2023-02-28T14:06:40;9.80;99.90
11772;DHT22;12556;55.748;13.194;2023-02-28T14:09:21;9.70;99.90
11772;DHT22;12556;55.748;13.194;2023-02-28T14:11:50;9.60;99.90
11772;DHT22;12556;55.748;13.194;2023-02-28T14:14:54;9.60;99.90
11772;DHT22;12556;55.748;13.194;2023-02-28T14:17:24;9.60;99.90
11772;DHT22;12556;55.748;13.194;2023-02-28T14:19:51;9.50;99.90
11772;DHT22;12556;55.748;13.194;2023-02-28T14:22:38;9.60;99.90
11772;DHT22;12556;55.748;13.194;2023-02-28T14:25:18;9.50;99.90
11772;DHT22;12556;55.748;13.194;2023-02-28T14:27:52;9.30;99.90
11772;DHT22;12556;55.748;13.194;2023-02-28T14:33:32;9.20;99.90
11772;DHT22;12556;55.748;13.194;2023-02-28T14:36:06;9.10;99.90
11772;DHT22;12556;55.748;13.194;2023-02-28T14:38:37;8.90;99.90
11772;DHT22;12556;55.748;13.194;2023-02-28T14:41:16;8.80;99.90
11772;DHT22;12556;55.748;13.194;2023-02-28T14:43:50;8.80;99.90
11772;DHT22;12556;55.748;13.194;2023-02-28T14:46:18;8.70;99.90
11772;DHT22;12556;55.748;13.194;2023-02-28T14:48:47;8.60;99.90
11772;DHT22;12556;55.748;13.194;2023-02-28T14:51:19;8.50;99.90
11772;DHT22;12556;55.748;13.194;2023-02-28T14:53:49;8.50;99.90
11772;DHT22;12556;55.748;13.194;2023-02-28T14:56:30;8.40;99.90
11772;DHT22;12556;55.748;13.194;2023-02-28T14:58:59;8.50;99.90
11772;DHT22;12556;55.748;13.194;2023-02-28T15:01:26;8.40;99.90
11772;DHT22;12556;55.748;13.194;2023-02-28T15:04:01;8.40;99.90
11772;DHT22;12556;55.748;13.194;2023-02-28T15:06:29;8.30;99.90
11772;DHT22;12556;55.748;13.194;2023-02-28T15:09:17;8.60;99.90
11772;DHT22;12556;55.748;13.194;2023-02-28T15:11:47;8.30;99.90
11772;DHT22;12556;55.748;13.194;2023-02-28T15:14:17;8.20;99.90
11772;DHT22;12556;55.748;13.194;2023-02-28T15:16:48;8.20;99.90
11772;DHT22;12556;55.748;13.194;2023-02-28T15:19:21;8.10;99.90
11772;DHT22;12556;55.748;13.194;2023-02-28T15:21:52;8.00;99.90
11772;DHT22;12556;55.748;13.194;2023-02-28T15:24:24;7.90;99.90
11772;DHT22;12556;55.748;13.194;2023-02-28T15:26:54;7.90;99.90
11772;DHT22;12556;55.748;13.194;2023-02-28T15:29:25;7.80;99.90
11772;DHT22;12556;55.748;13.194;2023-02-28T15:31:56;7.70;99.90
11772;DHT22;12556;55.748;13.194;2023-02-28T15:34:28;7.70;99.90
11772;DHT22;12556;55.748;13.194;2023-02-28T15:36:56;7.60;99.90
11772;DHT22;12556;55.748;13.194;2023-02-28T15:39:24;7.50;99.90
11772;DHT22;12556;55.748;13.194;2023-02-28T15:41:54;7.50;99.90
11772;DHT22;12556;55.748;13.194;2023-02-28T15:44:36;7.40;99.90
11772;DHT22;12556;55.748;13.194;2023-02-28T15:47:05;7.30;99.90
11772;DHT22;12556;55.748;13.194;2023-02-28T15:49:39;7.20;99.90
11772;DHT22;12556;55.748;13.194;2023-02-28T15:52:13;7.10;99.90
11772;DHT22;12556;55.748;13.194;2023-02-28T15:54:40;7.10;99.90
11772;DHT22;12556;55.748;13.194;2023-02-28T15:57:13;7.00;99.90
11772;DHT22;12556;55.748;13.194;2023-02-28T15:59:48;7.00;99.90
11772;DHT22;12556;55.748;13.194;2023-02-28T16:02:18;6.90;99.90
11772;DHT22;12556;55.748;13.194;2023-02-28T16:04:59;6.80;99.90
11772;DHT22;12556;55.748;13.194;2023-02-28T16:07:26;6.80;99.90
11772;DHT22;12556;55.748;13.194;2023-02-28T16:09:53;6.70;99.90